sensor_id;sensor_type;location;lat;lon;timestamp;pressure;altitude;pressure_sealevel;temperature
15626;BMP180;7912;51.376;6.126;2022-10-29T00:01:04;101832.00;;;19.40
15626;BMP180;7912;51.376;6.126;2022-10-29T00:03:32;101824.00;;;19.40
15626;BMP180;7912;51.376;6.126;2022-10-29T00:06:04;101836.00;;;19.40
15626;BMP180;7912;51.376;6.126;2022-10-29T00:08:35;101841.00;;;19.50
15626;BMP180;7912;51.376;6.126;2022-10-29T00:11:17;101833.00;;;19.50
15626;BMP180;7912;51.376;6.126;2022-10-29T00:13:47;101844.00;;;19.50
15626;BMP180;7912;51.376;6.126;2022-10-29T00:16:22;101841.00;;;19.50
15626;BMP180;7912;51.376;6.126;2022-10-29T00:18:51;101855.00;;;19.50
15626;BMP180;7912;51.376;6.126;2022-10-29T00:21:21;101840.00;;;19.50
15626;BMP180;7912;51.376;6.126;2022-10-29T00:23:50;101840.00;;;19.60
15626;BMP180;7912;51.376;6.126;2022-10-29T00:26:21;101828.00;;;19.60
15626;BMP180;7912;51.376;6.126;2022-10-29T00:28:54;101825.00;;;19.60
15626;BMP180;7912;51.376;6.126;2022-10-29T00:32:02;101826.00;;;19.60
15626;BMP180;7912;51.376;6.126;2022-10-29T00:37:55;101795.00;;;19.60
15626;BMP180;7912;51.376;6.126;2022-10-29T00:40:23;101803.00;;;19.60
15626;BMP180;7912;51.376;6.126;2022-10-29T00:42:50;101793.00;;;19.60
15626;BMP180;7912;51.376;6.126;2022-10-29T00:45:20;101812.00;;;19.60
15626;BMP180;7912;51.376;6.126;2022-10-29T00:47:51;101810.00;;;19.60
15626;BMP180;7912;51.376;6.126;2022-10-29T00:50:23;101811.00;;;19.60
15626;BMP180;7912;51.376;6.126;2022-10-29T00:52:52;101816.00;;;19.60
15626;BMP180;7912;51.376;6.126;2022-10-29T00:55:20;101813.00;;;19.50
15626;BMP180;7912;51.376;6.126;2022-10-29T00:57:53;101815.00;;;19.60
15626;BMP180;7912;51.376;6.126;2022-10-29T01:00:22;101821.00;;;19.50
15626;BMP180;7912;51.376;6.126;2022-10-29T01:02:50;101822.00;;;19.50
15626;BMP180;7912;51.376;6.126;2022-10-29T01:05:22;101820.00;;;19.50
15626;BMP180;7912;51.376;6.126;2022-10-29T01:07:51;101818.00;;;19.50
15626;BMP180;7912;51.376;6.126;2022-10-29T01:11:13;101821.00;;;19.40
15626;BMP180;7912;51.376;6.126;2022-10-29T01:16:45;101811.00;;;19.30
15626;BMP180;7912;51.376;6.126;2022-10-29T01:26:02;101817.00;;;19.10
15626;BMP180;7912;51.376;6.126;2022-10-29T01:32:12;101813.00;;;19.10
15626;BMP180;7912;51.376;6.126;2022-10-29T01:35:02;101799.00;;;19.10
15626;BMP180;7912;51.376;6.126;2022-10-29T01:40:59;101786.00;;;19.10
15626;BMP180;7912;51.376;6.126;2022-10-29T01:43:48;101796.00;;;19.10
15626;BMP180;7912;51.376;6.126;2022-10-29T01:46:36;101773.00;;;19.00
15626;BMP180;7912;51.376;6.126;2022-10-29T01:49:15;101791.00;;;19.10
15626;BMP180;7912;51.376;6.126;2022-10-29T01:51:47;101790.00;;;19.10
15626;BMP180;7912;51.376;6.126;2022-10-29T01:54:16;101771.00;;;19.10
15626;BMP180;7912;51.376;6.126;2022-10-29T01:56:52;101782.00;;;19.10
15626;BMP180;7912;51.376;6.126;2022-10-29T01:59:21;101772.00;;;19.10
15626;BMP180;7912;51.376;6.126;2022-10-29T02:08:27;101773.00;;;19.00
15626;BMP180;7912;51.376;6.126;2022-10-29T02:11:15;101778.00;;;19.00
15626;BMP180;7912;51.376;6.126;2022-10-29T02:16:29;101765.00;;;19.00
15626;BMP180;7912;51.376;6.126;2022-10-29T02:22:22;101741.00;;;18.90
15626;BMP180;7912;51.376;6.126;2022-10-29T02:24:50;101751.00;;;18.90
15626;BMP180;7912;51.376;6.126;2022-10-29T02:27:18;101748.00;;;19.00
15626;BMP180;7912;51.376;6.126;2022-10-29T02:29:46;101740.00;;;19.00
15626;BMP180;7912;51.376;6.126;2022-10-29T02:32:13;101739.00;;;19.00
15626;BMP180;7912;51.376;6.126;2022-10-29T02:34:41;101742.00;;;19.00
15626;BMP180;7912;51.376;6.126;2022-10-29T02:37:09;101754.00;;;19.00
15626;BMP180;7912;51.376;6.126;2022-10-29T02:39:37;101741.00;;;19.00
15626;BMP180;7912;51.376;6.126;2022-10-29T02:42:04;101728.00;;;19.00
15626;BMP180;7912;51.376;6.126;2022-10-29T02:44:32;101731.00;;;18.90
15626;BMP180;7912;51.376;6.126;2022-10-29T02:47:00;101742.00;;;18.90
15626;BMP180;7912;51.376;6.126;2022-10-29T02:49:29;101737.00;;;18.80
15626;BMP180;7912;51.376;6.126;2022-10-29T02:51:57;101734.00;;;18.80
15626;BMP180;7912;51.376;6.126;2022-10-29T02:54:24;101741.00;;;18.70
15626;BMP180;7912;51.376;6.126;2022-10-29T02:56:52;101736.00;;;18.70
15626;BMP180;7912;51.376;6.126;2022-10-29T02:59:20;101743.00;;;18.60
15626;BMP180;7912;51.376;6.126;2022-10-29T03:01:47;101740.00;;;18.60
15626;BMP180;7912;51.376;6.126;2022-10-29T03:04:15;101721.00;;;18.60
15626;BMP180;7912;51.376;6.126;2022-10-29T03:06:44;101724.00;;;18.50
15626;BMP180;7912;51.376;6.126;2022-10-29T03:09:11;101731.00;;;18.50
15626;BMP180;7912;51.376;6.126;2022-10-29T03:11:39;101714.00;;;18.50
15626;BMP180;7912;51.376;6.126;2022-10-29T03:14:06;101717.00;;;18.50
15626;BMP180;7912;51.376;6.126;2022-10-29T03:16:34;101705.00;;;18.50
15626;BMP180;7912;51.376;6.126;2022-10-29T03:19:02;101711.00;;;18.50
15626;BMP180;7912;51.376;6.126;2022-10-29T03:21:31;101697.00;;;18.60
15626;BMP180;7912;51.376;6.126;2022-10-29T03:23:59;101707.00;;;18.60
15626;BMP180;7912;51.376;6.126;2022-10-29T03:26:27;101699.00;;;18.60
15626;BMP180;7912;51.376;6.126;2022-10-29T03:28:55;101702.00;;;18.60
15626;BMP180;7912;51.376;6.126;2022-10-29T03:31:22;101705.00;;;18.70
15626;BMP180;7912;51.376;6.126;2022-10-29T03:33:50;101698.00;;;18.70
15626;BMP180;7912;51.376;6.126;2022-10-29T03:36:18;101708.00;;;18.70
15626;BMP180;7912;51.376;6.126;2022-10-29T03:38:47;101711.00;;;18.70
15626;BMP180;7912;51.376;6.126;2022-10-29T03:41:16;101690.00;;;18.70
15626;BMP180;7912;51.376;6.126;2022-10-29T03:43:44;101692.00;;;18.70
15626;BMP180;7912;51.376;6.126;2022-10-29T03:46:16;101703.00;;;18.70
15626;BMP180;7912;51.376;6.126;2022-10-29T03:48:49;101695.00;;;18.70
15626;BMP180;7912;51.376;6.126;2022-10-29T03:51:17;101693.00;;;18.70
15626;BMP180;7912;51.376;6.126;2022-10-29T03:53:44;101688.00;;;18.70
15626;BMP180;7912;51.376;6.126;2022-10-29T03:56:12;101690.00;;;18.70
15626;BMP180;7912;51.376;6.126;2022-10-29T03:58:39;101684.00;;;18.70
15626;BMP180;7912;51.376;6.126;2022-10-29T04:01:09;101684.00;;;18.70
15626;BMP180;7912;51.376;6.126;2022-10-29T04:03:37;101682.00;;;18.70
15626;BMP180;7912;51.376;6.126;2022-10-29T04:06:14;101689.00;;;18.80
15626;BMP180;7912;51.376;6.126;2022-10-29T04:08:42;101691.00;;;18.80
15626;BMP180;7912;51.376;6.126;2022-10-29T04:11:12;101692.00;;;18.80
15626;BMP180;7912;51.376;6.126;2022-10-29T04:13:39;101682.00;;;18.80
15626;BMP180;7912;51.376;6.126;2022-10-29T04:16:07;101680.00;;;18.80
15626;BMP180;7912;51.376;6.126;2022-10-29T04:18:34;101670.00;;;18.80
15626;BMP180;7912;51.376;6.126;2022-10-29T04:21:02;101666.00;;;18.80
15626;BMP180;7912;51.376;6.126;2022-10-29T04:23:50;101652.00;;;18.80
15626;BMP180;7912;51.376;6.126;2022-10-29T04:26:41;101650.00;;;18.80
15626;BMP180;7912;51.376;6.126;2022-10-29T04:29:28;101644.00;;;18.80
15626;BMP180;7912;51.376;6.126;2022-10-29T04:31:56;101642.00;;;18.80
15626;BMP180;7912;51.376;6.126;2022-10-29T04:34:24;101635.00;;;18.80
15626;BMP180;7912;51.376;6.126;2022-10-29T04:36:51;101652.00;;;18.80
15626;BMP180;7912;51.376;6.126;2022-10-29T04:39:19;101654.00;;;18.90
15626;BMP180;7912;51.376;6.126;2022-10-29T04:41:49;101656.00;;;18.90
15626;BMP180;7912;51.376;6.126;2022-10-29T04:44:17;101658.00;;;18.90
15626;BMP180;7912;51.376;6.126;2022-10-29T04:46:46;101646.00;;;18.90
15626;BMP180;7912;51.376;6.126;2022-10-29T04:49:14;101651.00;;;18.90
15626;BMP180;7912;51.376;6.126;2022-10-29T04:51:41;101652.00;;;18.90
15626;BMP180;7912;51.376;6.126;2022-10-29T04:54:09;101648.00;;;18.90
15626;BMP180;7912;51.376;6.126;2022-10-29T04:56:36;101638.00;;;18.90
15626;BMP180;7912;51.376;6.126;2022-10-29T04:59:04;101640.00;;;19.00
15626;BMP180;7912;51.376;6.126;2022-10-29T05:01:32;101636.00;;;18.90
15626;BMP180;7912;51.376;6.126;2022-10-29T05:03:59;101641.00;;;19.00
15626;BMP180;7912;51.376;6.126;2022-10-29T05:06:27;101643.00;;;19.00
15626;BMP180;7912;51.376;6.126;2022-10-29T05:08:55;101642.00;;;19.00
15626;BMP180;7912;51.376;6.126;2022-10-29T05:11:22;101617.00;;;19.10
15626;BMP180;7912;51.376;6.126;2022-10-29T05:13:50;101638.00;;;19.10
15626;BMP180;7912;51.376;6.126;2022-10-29T05:16:18;101642.00;;;19.10
15626;BMP180;7912;51.376;6.126;2022-10-29T05:18:46;101637.00;;;19.10
15626;BMP180;7912;51.376;6.126;2022-10-29T05:21:14;101642.00;;;19.20
15626;BMP180;7912;51.376;6.126;2022-10-29T05:23:41;101639.00;;;19.20
15626;BMP180;7912;51.376;6.126;2022-10-29T05:26:09;101633.00;;;19.30
15626;BMP180;7912;51.376;6.126;2022-10-29T05:28:36;101608.00;;;19.30
15626;BMP180;7912;51.376;6.126;2022-10-29T05:31:04;101602.00;;;19.30
15626;BMP180;7912;51.376;6.126;2022-10-29T05:33:31;101605.00;;;19.30
15626;BMP180;7912;51.376;6.126;2022-10-29T05:35:59;101602.00;;;19.40
15626;BMP180;7912;51.376;6.126;2022-10-29T05:38:27;101600.00;;;19.40
15626;BMP180;7912;51.376;6.126;2022-10-29T05:40:57;101597.00;;;19.40
15626;BMP180;7912;51.376;6.126;2022-10-29T05:43:25;101598.00;;;19.40
15626;BMP180;7912;51.376;6.126;2022-10-29T05:45:53;101602.00;;;19.50
15626;BMP180;7912;51.376;6.126;2022-10-29T05:48:21;101585.00;;;19.50
15626;BMP180;7912;51.376;6.126;2022-10-29T05:50:48;101589.00;;;19.50
15626;BMP180;7912;51.376;6.126;2022-10-29T05:53:16;101594.00;;;19.50
15626;BMP180;7912;51.376;6.126;2022-10-29T05:55:44;101601.00;;;19.60
15626;BMP180;7912;51.376;6.126;2022-10-29T05:58:13;101598.00;;;19.60
15626;BMP180;7912;51.376;6.126;2022-10-29T06:00:43;101597.00;;;19.60
15626;BMP180;7912;51.376;6.126;2022-10-29T06:03:21;101605.00;;;19.60
15626;BMP180;7912;51.376;6.126;2022-10-29T06:05:50;101598.00;;;19.70
15626;BMP180;7912;51.376;6.126;2022-10-29T06:08:17;101596.00;;;19.70
15626;BMP180;7912;51.376;6.126;2022-10-29T06:10:45;101594.00;;;19.70
15626;BMP180;7912;51.376;6.126;2022-10-29T06:13:16;101597.00;;;19.70
15626;BMP180;7912;51.376;6.126;2022-10-29T06:15:48;101589.00;;;19.70
15626;BMP180;7912;51.376;6.126;2022-10-29T06:18:16;101592.00;;;19.70
15626;BMP180;7912;51.376;6.126;2022-10-29T06:20:44;101587.00;;;19.80
15626;BMP180;7912;51.376;6.126;2022-10-29T06:23:12;101580.00;;;19.80
15626;BMP180;7912;51.376;6.126;2022-10-29T06:25:41;101581.00;;;19.80
15626;BMP180;7912;51.376;6.126;2022-10-29T06:28:11;101580.00;;;19.80
15626;BMP180;7912;51.376;6.126;2022-10-29T06:30:48;101584.00;;;19.70
15626;BMP180;7912;51.376;6.126;2022-10-29T06:33:18;101590.00;;;19.70
15626;BMP180;7912;51.376;6.126;2022-10-29T06:35:46;101589.00;;;19.70
15626;BMP180;7912;51.376;6.126;2022-10-29T06:38:14;101597.00;;;19.70
15626;BMP180;7912;51.376;6.126;2022-10-29T06:40:42;101595.00;;;19.70
15626;BMP180;7912;51.376;6.126;2022-10-29T06:43:18;101605.00;;;19.70
15626;BMP180;7912;51.376;6.126;2022-10-29T06:45:48;101601.00;;;19.70
15626;BMP180;7912;51.376;6.126;2022-10-29T06:48:16;101602.00;;;19.70
15626;BMP180;7912;51.376;6.126;2022-10-29T06:50:49;101597.00;;;19.70
15626;BMP180;7912;51.376;6.126;2022-10-29T06:53:17;101599.00;;;19.80
15626;BMP180;7912;51.376;6.126;2022-10-29T06:55:45;101606.00;;;19.80
15626;BMP180;7912;51.376;6.126;2022-10-29T06:58:16;101607.00;;;19.80
15626;BMP180;7912;51.376;6.126;2022-10-29T07:00:48;101597.00;;;19.80
15626;BMP180;7912;51.376;6.126;2022-10-29T07:03:19;101590.00;;;19.90
15626;BMP180;7912;51.376;6.126;2022-10-29T07:05:54;101594.00;;;19.90
15626;BMP180;7912;51.376;6.126;2022-10-29T07:08:24;101599.00;;;20.00
15626;BMP180;7912;51.376;6.126;2022-10-29T07:10:53;101609.00;;;20.00
15626;BMP180;7912;51.376;6.126;2022-10-29T07:13:21;101613.00;;;20.10
15626;BMP180;7912;51.376;6.126;2022-10-29T07:15:50;101612.00;;;20.10
15626;BMP180;7912;51.376;6.126;2022-10-29T07:18:18;101604.00;;;20.20
15626;BMP180;7912;51.376;6.126;2022-10-29T07:20:47;101616.00;;;20.30
15626;BMP180;7912;51.376;6.126;2022-10-29T07:23:16;101604.00;;;20.40
15626;BMP180;7912;51.376;6.126;2022-10-29T07:25:45;101598.00;;;20.40
15626;BMP180;7912;51.376;6.126;2022-10-29T07:28:17;101598.00;;;20.50
15626;BMP180;7912;51.376;6.126;2022-10-29T07:30:51;101597.00;;;20.60
15626;BMP180;7912;51.376;6.126;2022-10-29T07:33:20;101609.00;;;20.70
15626;BMP180;7912;51.376;6.126;2022-10-29T07:35:50;101596.00;;;20.70
15626;BMP180;7912;51.376;6.126;2022-10-29T07:38:18;101598.00;;;20.80
15626;BMP180;7912;51.376;6.126;2022-10-29T07:40:49;101597.00;;;20.80
15626;BMP180;7912;51.376;6.126;2022-10-29T07:43:19;101599.00;;;20.80
15626;BMP180;7912;51.376;6.126;2022-10-29T07:45:49;101600.00;;;20.80
15626;BMP180;7912;51.376;6.126;2022-10-29T07:48:20;101598.00;;;20.80
15626;BMP180;7912;51.376;6.126;2022-10-29T07:50:49;101602.00;;;20.80
15626;BMP180;7912;51.376;6.126;2022-10-29T07:53:18;101593.00;;;20.80
15626;BMP180;7912;51.376;6.126;2022-10-29T07:55:53;101600.00;;;20.80
15626;BMP180;7912;51.376;6.126;2022-10-29T07:58:24;101587.00;;;20.80
15626;BMP180;7912;51.376;6.126;2022-10-29T08:00:53;101597.00;;;20.70
15626;BMP180;7912;51.376;6.126;2022-10-29T08:03:21;101589.00;;;20.80
15626;BMP180;7912;51.376;6.126;2022-10-29T08:05:49;101584.00;;;20.80
15626;BMP180;7912;51.376;6.126;2022-10-29T08:08:23;101592.00;;;20.90
15626;BMP180;7912;51.376;6.126;2022-10-29T08:10:50;101589.00;;;20.90
15626;BMP180;7912;51.376;6.126;2022-10-29T08:13:19;101586.00;;;21.00
15626;BMP180;7912;51.376;6.126;2022-10-29T08:15:48;101588.00;;;21.10
15626;BMP180;7912;51.376;6.126;2022-10-29T08:18:17;101587.00;;;21.20
15626;BMP180;7912;51.376;6.126;2022-10-29T08:20:46;101577.00;;;21.20
15626;BMP180;7912;51.376;6.126;2022-10-29T08:23:15;101584.00;;;21.30
15626;BMP180;7912;51.376;6.126;2022-10-29T08:25:44;101587.00;;;21.30
15626;BMP180;7912;51.376;6.126;2022-10-29T08:28:14;101579.00;;;21.30
15626;BMP180;7912;51.376;6.126;2022-10-29T08:30:48;101576.00;;;21.40
15626;BMP180;7912;51.376;6.126;2022-10-29T08:33:16;101562.00;;;21.50
15626;BMP180;7912;51.376;6.126;2022-10-29T08:35:44;101578.00;;;21.60
15626;BMP180;7912;51.376;6.126;2022-10-29T08:38:12;101579.00;;;21.70
15626;BMP180;7912;51.376;6.126;2022-10-29T08:45:13;101567.00;;;21.90
15626;BMP180;7912;51.376;6.126;2022-10-29T08:50:50;101571.00;;;22.10
15626;BMP180;7912;51.376;6.126;2022-10-29T08:53:30;101573.00;;;22.20
15626;BMP180;7912;51.376;6.126;2022-10-29T08:56:05;101576.00;;;22.30
15626;BMP180;7912;51.376;6.126;2022-10-29T09:01:35;101582.00;;;22.50
15626;BMP180;7912;51.376;6.126;2022-10-29T09:04:25;101570.00;;;22.60
15626;BMP180;7912;51.376;6.126;2022-10-29T09:07:05;101579.00;;;22.70
15626;BMP180;7912;51.376;6.126;2022-10-29T09:09:40;101581.00;;;22.70
15626;BMP180;7912;51.376;6.126;2022-10-29T09:19:27;101566.00;;;22.70
15626;BMP180;7912;51.376;6.126;2022-10-29T09:22:21;101565.00;;;22.70
15626;BMP180;7912;51.376;6.126;2022-10-29T09:25:32;101562.00;;;22.90
15626;BMP180;7912;51.376;6.126;2022-10-29T09:31:10;101542.00;;;23.20
15626;BMP180;7912;51.376;6.126;2022-10-29T09:33:45;101548.00;;;23.30
15626;BMP180;7912;51.376;6.126;2022-10-29T09:36:19;101552.00;;;23.50
15626;BMP180;7912;51.376;6.126;2022-10-29T09:39:13;101554.00;;;23.50
15626;BMP180;7912;51.376;6.126;2022-10-29T09:41:44;101564.00;;;23.50
15626;BMP180;7912;51.376;6.126;2022-10-29T09:44:33;101572.00;;;23.50
15626;BMP180;7912;51.376;6.126;2022-10-29T09:52:41;101543.00;;;23.80
15626;BMP180;7912;51.376;6.126;2022-10-29T09:55:27;101547.00;;;23.90
15626;BMP180;7912;51.376;6.126;2022-10-29T09:57:56;101544.00;;;24.00
15626;BMP180;7912;51.376;6.126;2022-10-29T10:00:29;101549.00;;;24.10
15626;BMP180;7912;51.376;6.126;2022-10-29T10:06:01;101545.00;;;24.60
15626;BMP180;7912;51.376;6.126;2022-10-29T10:08:30;101530.00;;;25.00
15626;BMP180;7912;51.376;6.126;2022-10-29T10:11:06;101531.00;;;25.60
15626;BMP180;7912;51.376;6.126;2022-10-29T10:13:57;101525.00;;;26.00
15626;BMP180;7912;51.376;6.126;2022-10-29T10:16:31;101519.00;;;26.20
15626;BMP180;7912;51.376;6.126;2022-10-29T10:18:59;101523.00;;;26.20
15626;BMP180;7912;51.376;6.126;2022-10-29T10:21:30;101522.00;;;26.20
15626;BMP180;7912;51.376;6.126;2022-10-29T10:23:59;101519.00;;;26.10
15626;BMP180;7912;51.376;6.126;2022-10-29T10:26:40;101525.00;;;26.10
15626;BMP180;7912;51.376;6.126;2022-10-29T10:29:22;101525.00;;;26.30
15626;BMP180;7912;51.376;6.126;2022-10-29T10:32:15;101526.00;;;26.60
15626;BMP180;7912;51.376;6.126;2022-10-29T10:34:43;101516.00;;;27.00
15626;BMP180;7912;51.376;6.126;2022-10-29T10:37:18;101508.00;;;27.40
15626;BMP180;7912;51.376;6.126;2022-10-29T10:39:58;101502.00;;;27.80
15626;BMP180;7912;51.376;6.126;2022-10-29T10:43:04;101509.00;;;28.10
15626;BMP180;7912;51.376;6.126;2022-10-29T10:45:38;101494.00;;;28.20
15626;BMP180;7912;51.376;6.126;2022-10-29T10:48:11;101499.00;;;28.50
15626;BMP180;7912;51.376;6.126;2022-10-29T10:50:41;101496.00;;;28.70
15626;BMP180;7912;51.376;6.126;2022-10-29T10:53:21;101500.00;;;29.10
15626;BMP180;7912;51.376;6.126;2022-10-29T10:55:56;101499.00;;;29.60
15626;BMP180;7912;51.376;6.126;2022-10-29T10:58:30;101502.00;;;29.90
15626;BMP180;7912;51.376;6.126;2022-10-29T11:01:36;101505.00;;;30.30
15626;BMP180;7912;51.376;6.126;2022-10-29T11:04:26;101499.00;;;30.50
15626;BMP180;7912;51.376;6.126;2022-10-29T11:07:02;101505.00;;;30.50
15626;BMP180;7912;51.376;6.126;2022-10-29T11:09:45;101498.00;;;30.60
15626;BMP180;7912;51.376;6.126;2022-10-29T11:12:33;101491.00;;;30.70
15626;BMP180;7912;51.376;6.126;2022-10-29T11:15:35;101486.00;;;30.90
15626;BMP180;7912;51.376;6.126;2022-10-29T11:27:01;101479.00;;;31.60
15626;BMP180;7912;51.376;6.126;2022-10-29T11:30:10;101480.00;;;31.90
15626;BMP180;7912;51.376;6.126;2022-10-29T11:35:45;101469.00;;;32.20
15626;BMP180;7912;51.376;6.126;2022-10-29T11:38:33;101479.00;;;32.30
15626;BMP180;7912;51.376;6.126;2022-10-29T11:44:13;101480.00;;;32.50
15626;BMP180;7912;51.376;6.126;2022-10-29T11:47:25;101481.00;;;32.70
15626;BMP180;7912;51.376;6.126;2022-10-29T11:50:46;101458.00;;;32.80
15626;BMP180;7912;51.376;6.126;2022-10-29T11:56:55;101466.00;;;32.90
15626;BMP180;7912;51.376;6.126;2022-10-29T12:06:02;101462.00;;;33.60
15626;BMP180;7912;51.376;6.126;2022-10-29T12:08:55;101459.00;;;33.70
15626;BMP180;7912;51.376;6.126;2022-10-29T12:12:12;101458.00;;;33.90
15626;BMP180;7912;51.376;6.126;2022-10-29T12:15:03;101461.00;;;34.00
15626;BMP180;7912;51.376;6.126;2022-10-29T12:20:32;101447.00;;;33.80
15626;BMP180;7912;51.376;6.126;2022-10-29T12:26:49;101437.00;;;33.30
15626;BMP180;7912;51.376;6.126;2022-10-29T12:30:05;101437.00;;;33.30
15626;BMP180;7912;51.376;6.126;2022-10-29T12:35:47;101436.00;;;33.80
15626;BMP180;7912;51.376;6.126;2022-10-29T12:38:44;101438.00;;;33.90
15626;BMP180;7912;51.376;6.126;2022-10-29T12:41:28;101425.00;;;33.90
15626;BMP180;7912;51.376;6.126;2022-10-29T12:44:22;101423.00;;;33.90
15626;BMP180;7912;51.376;6.126;2022-10-29T12:47:25;101423.00;;;33.90
15626;BMP180;7912;51.376;6.126;2022-10-29T12:50:10;101428.00;;;33.90
15626;BMP180;7912;51.376;6.126;2022-10-29T12:55:32;101416.00;;;33.60
15626;BMP180;7912;51.376;6.126;2022-10-29T13:04:29;101419.00;;;32.30
15626;BMP180;7912;51.376;6.126;2022-10-29T13:07:21;101415.00;;;32.00
15626;BMP180;7912;51.376;6.126;2022-10-29T13:15:58;101410.00;;;31.70
15626;BMP180;7912;51.376;6.126;2022-10-29T13:18:47;101402.00;;;31.90
15626;BMP180;7912;51.376;6.126;2022-10-29T13:21:55;101401.00;;;32.20
15626;BMP180;7912;51.376;6.126;2022-10-29T13:24:26;101383.00;;;32.40
15626;BMP180;7912;51.376;6.126;2022-10-29T13:27:31;101384.00;;;32.70
15626;BMP180;7912;51.376;6.126;2022-10-29T13:32:42;101388.00;;;33.10
15626;BMP180;7912;51.376;6.126;2022-10-29T13:37:54;101376.00;;;33.00
15626;BMP180;7912;51.376;6.126;2022-10-29T13:43:15;101377.00;;;32.60
15626;BMP180;7912;51.376;6.126;2022-10-29T13:48:41;101367.00;;;32.30
15626;BMP180;7912;51.376;6.126;2022-10-29T13:51:15;101369.00;;;32.20
15626;BMP180;7912;51.376;6.126;2022-10-29T13:53:57;101360.00;;;32.00
15626;BMP180;7912;51.376;6.126;2022-10-29T13:56:56;101371.00;;;31.70
15626;BMP180;7912;51.376;6.126;2022-10-29T13:59:38;101372.00;;;31.40
15626;BMP180;7912;51.376;6.126;2022-10-29T14:05:18;101358.00;;;30.70
15626;BMP180;7912;51.376;6.126;2022-10-29T14:11:21;101365.00;;;30.10
15626;BMP180;7912;51.376;6.126;2022-10-29T14:16:11;101361.00;;;29.60
15626;BMP180;7912;51.376;6.126;2022-10-29T14:18:46;101359.00;;;29.40
15626;BMP180;7912;51.376;6.126;2022-10-29T14:21:27;101339.00;;;29.30
15626;BMP180;7912;51.376;6.126;2022-10-29T14:24:07;101352.00;;;29.10
15626;BMP180;7912;51.376;6.126;2022-10-29T14:26:42;101341.00;;;29.00
15626;BMP180;7912;51.376;6.126;2022-10-29T14:29:20;101357.00;;;28.80
15626;BMP180;7912;51.376;6.126;2022-10-29T14:32:17;101361.00;;;28.60
15626;BMP180;7912;51.376;6.126;2022-10-29T14:34:51;101345.00;;;28.40
15626;BMP180;7912;51.376;6.126;2022-10-29T14:37:38;101351.00;;;28.20
15626;BMP180;7912;51.376;6.126;2022-10-29T14:40:21;101355.00;;;28.00
15626;BMP180;7912;51.376;6.126;2022-10-29T14:42:53;101366.00;;;27.80
15626;BMP180;7912;51.376;6.126;2022-10-29T14:45:25;101357.00;;;27.70
15626;BMP180;7912;51.376;6.126;2022-10-29T14:47:57;101348.00;;;27.60
15626;BMP180;7912;51.376;6.126;2022-10-29T14:50:29;101352.00;;;27.40
15626;BMP180;7912;51.376;6.126;2022-10-29T14:53:05;101355.00;;;27.30
15626;BMP180;7912;51.376;6.126;2022-10-29T14:55:44;101363.00;;;27.20
15626;BMP180;7912;51.376;6.126;2022-10-29T14:58:34;101355.00;;;27.10
15626;BMP180;7912;51.376;6.126;2022-10-29T15:01:12;101361.00;;;27.00
15626;BMP180;7912;51.376;6.126;2022-10-29T15:03:40;101357.00;;;27.00
15626;BMP180;7912;51.376;6.126;2022-10-29T15:06:25;101359.00;;;26.90
15626;BMP180;7912;51.376;6.126;2022-10-29T15:09:13;101366.00;;;26.80
15626;BMP180;7912;51.376;6.126;2022-10-29T15:15:26;101360.00;;;26.60
15626;BMP180;7912;51.376;6.126;2022-10-29T15:17:59;101344.00;;;26.50
15626;BMP180;7912;51.376;6.126;2022-10-29T15:20:43;101347.00;;;26.50
15626;BMP180;7912;51.376;6.126;2022-10-29T15:25:59;101335.00;;;26.30
15626;BMP180;7912;51.376;6.126;2022-10-29T15:28:36;101332.00;;;26.20
15626;BMP180;7912;51.376;6.126;2022-10-29T15:31:30;101338.00;;;26.10
15626;BMP180;7912;51.376;6.126;2022-10-29T15:34:14;101330.00;;;26.00
15626;BMP180;7912;51.376;6.126;2022-10-29T15:36:54;101332.00;;;25.90
15626;BMP180;7912;51.376;6.126;2022-10-29T15:42:33;101330.00;;;25.70
15626;BMP180;7912;51.376;6.126;2022-10-29T15:50:44;101323.00;;;25.50
15626;BMP180;7912;51.376;6.126;2022-10-29T15:53:15;101329.00;;;25.40
15626;BMP180;7912;51.376;6.126;2022-10-29T15:55:43;101326.00;;;25.30
15626;BMP180;7912;51.376;6.126;2022-10-29T15:58:17;101310.00;;;25.20
15626;BMP180;7912;51.376;6.126;2022-10-29T16:00:46;101306.00;;;25.10
15626;BMP180;7912;51.376;6.126;2022-10-29T16:03:24;101318.00;;;25.10
15626;BMP180;7912;51.376;6.126;2022-10-29T16:06:02;101310.00;;;25.00
15626;BMP180;7912;51.376;6.126;2022-10-29T16:08:42;101310.00;;;24.90
15626;BMP180;7912;51.376;6.126;2022-10-29T16:11:17;101312.00;;;24.80
15626;BMP180;7912;51.376;6.126;2022-10-29T16:13:48;101318.00;;;24.70
15626;BMP180;7912;51.376;6.126;2022-10-29T16:16:23;101309.00;;;24.70
15626;BMP180;7912;51.376;6.126;2022-10-29T16:18:51;101303.00;;;24.60
15626;BMP180;7912;51.376;6.126;2022-10-29T16:25:06;101306.00;;;24.30
15626;BMP180;7912;51.376;6.126;2022-10-29T16:32:33;101308.00;;;24.10
15626;BMP180;7912;51.376;6.126;2022-10-29T16:35:24;101296.00;;;24.00
15626;BMP180;7912;51.376;6.126;2022-10-29T16:38:05;101314.00;;;23.90
15626;BMP180;7912;51.376;6.126;2022-10-29T16:45:20;101299.00;;;23.60
15626;BMP180;7912;51.376;6.126;2022-10-29T16:47:49;101314.00;;;23.60
15626;BMP180;7912;51.376;6.126;2022-10-29T16:50:22;101312.00;;;23.60
15626;BMP180;7912;51.376;6.126;2022-10-29T16:53:05;101310.00;;;23.50
15626;BMP180;7912;51.376;6.126;2022-10-29T16:55:37;101304.00;;;23.50
15626;BMP180;7912;51.376;6.126;2022-10-29T16:58:12;101300.00;;;23.40
15626;BMP180;7912;51.376;6.126;2022-10-29T17:00:40;101295.00;;;23.40
15626;BMP180;7912;51.376;6.126;2022-10-29T17:03:12;101285.00;;;23.40
15626;BMP180;7912;51.376;6.126;2022-10-29T17:05:43;101303.00;;;23.30
15626;BMP180;7912;51.376;6.126;2022-10-29T17:08:12;101302.00;;;23.30
15626;BMP180;7912;51.376;6.126;2022-10-29T17:10:43;101298.00;;;23.20
15626;BMP180;7912;51.376;6.126;2022-10-29T17:13:12;101285.00;;;23.20
15626;BMP180;7912;51.376;6.126;2022-10-29T17:15:41;101287.00;;;23.20
15626;BMP180;7912;51.376;6.126;2022-10-29T17:18:09;101291.00;;;23.10
15626;BMP180;7912;51.376;6.126;2022-10-29T17:20:38;101296.00;;;23.10
15626;BMP180;7912;51.376;6.126;2022-10-29T17:23:06;101296.00;;;23.10
15626;BMP180;7912;51.376;6.126;2022-10-29T17:25:39;101288.00;;;23.10
15626;BMP180;7912;51.376;6.126;2022-10-29T17:28:08;101286.00;;;23.10
15626;BMP180;7912;51.376;6.126;2022-10-29T17:30:38;101282.00;;;23.10